createdAt,value
2023-07-07T00:00:02.256Z,13.68
2023-07-07T00:02:35.262Z,13.32
2023-07-07T00:05:02.545Z,15.73
2023-07-07T00:07:29.906Z,8.98
2023-07-07T00:09:57.130Z,7.57
2023-07-07T00:12:25.600Z,8.18
2023-07-07T00:14:53.115Z,10.40
2023-07-07T00:17:22.883Z,13.05
2023-07-07T00:19:50.180Z,12.45
2023-07-07T00:22:17.370Z,11.02
2023-07-07T00:24:44.607Z,9.52
2023-07-07T00:27:11.988Z,11.43
2023-07-07T00:29:39.743Z,13.00
2023-07-07T00:32:09.368Z,12.63
2023-07-07T00:34:36.692Z,14.05
2023-07-07T00:37:04.156Z,16.35
2023-07-07T00:39:31.469Z,12.25
2023-07-07T00:41:58.732Z,10.60
2023-07-07T00:44:30.336Z,9.30
2023-07-07T00:46:57.589Z,11.40
2023-07-07T00:49:24.829Z,10.88
2023-07-07T00:51:54.466Z,11.45
2023-07-07T00:54:25.397Z,10.27
2023-07-07T00:56:53.193Z,12.55
2023-07-07T00:59:24.788Z,9.85
2023-07-07T01:01:53.728Z,11.27
2023-07-07T01:04:21.159Z,10.40
2023-07-07T01:06:51.280Z,13.45
2023-07-07T01:09:19.008Z,9.32
2023-07-07T01:11:47.848Z,12.93
2023-07-07T01:14:20.992Z,10.48
2023-07-07T01:17:04.002Z,9.50
2023-07-07T01:19:46.404Z,11.77
2023-07-07T01:22:38.288Z,9.43
2023-07-07T01:25:18.857Z,10.02
2023-07-07T01:28:14.157Z,6.97
2023-07-07T01:30:48.472Z,11.30
2023-07-07T01:33:17.365Z,11.38
2023-07-07T01:35:45.609Z,9.88
2023-07-07T01:38:32.047Z,12.82
2023-07-07T01:41:24.211Z,9.27
2023-07-07T01:44:02.211Z,11.50
2023-07-07T01:46:56.301Z,10.80
2023-07-07T01:49:29.415Z,13.73
2023-07-07T01:52:21.760Z,12.48
2023-07-07T01:54:52.775Z,10.40
2023-07-07T01:57:20.694Z,13.25
2023-07-07T01:59:47.953Z,11.52
2023-07-07T02:02:15.219Z,8.45
2023-07-07T02:04:42.633Z,7.88
2023-07-07T02:07:09.855Z,12.15
2023-07-07T02:09:37.781Z,10.20
2023-07-07T02:12:05.705Z,8.30
2023-07-07T02:14:32.938Z,10.75
2023-07-07T02:17:00.272Z,11.13
2023-07-07T02:19:28.396Z,12.93
2023-07-07T02:21:55.640Z,9.85
2023-07-07T02:24:23.260Z,12.23
2023-07-07T02:26:51.336Z,12.35
2023-07-07T02:29:18.524Z,10.45
2023-07-07T02:31:45.985Z,12.27
2023-07-07T02:34:13.271Z,11.52
2023-07-07T02:36:40.392Z,12.35
2023-07-07T02:39:07.545Z,13.43
2023-07-07T02:41:34.856Z,12.07
2023-07-07T02:44:03.843Z,11.25
2023-07-07T02:46:31.802Z,9.20
2023-07-07T02:48:59.152Z,14.20
2023-07-07T02:51:26.385Z,9.52
2023-07-07T02:53:53.969Z,11.15
2023-07-07T02:56:21.106Z,12.73
2023-07-07T02:58:48.427Z,12.70
2023-07-07T03:01:19.582Z,11.40
2023-07-07T03:03:49.666Z,14.95
2023-07-07T03:06:22.764Z,17.83
2023-07-07T03:08:52.611Z,13.98
2023-07-07T03:11:22.627Z,11.85
2023-07-07T03:13:50.145Z,13.57
2023-07-07T03:16:23.065Z,10.38
2023-07-07T03:18:58.950Z,17.70
2023-07-07T03:21:27.354Z,10.43
2023-07-07T03:24:02.326Z,11.82
2023-07-07T03:26:32.019Z,14.13
2023-07-07T03:29:06.247Z,9.50
2023-07-07T03:31:36.004Z,15.80
2023-07-07T03:34:04.678Z,9.75
2023-07-07T03:36:36.748Z,13.90
2023-07-07T03:39:05.778Z,11.13
2023-07-07T03:41:34.175Z,10.02
2023-07-07T03:44:04.608Z,10.52
2023-07-07T03:46:36.106Z,14.73
2023-07-07T03:49:03.914Z,9.95
2023-07-07T03:51:37.321Z,11.88
2023-07-07T03:54:07.802Z,12.07
2023-07-07T03:56:37.104Z,10.60
2023-07-07T03:59:05.032Z,11.13
2023-07-07T04:01:32.640Z,9.15
2023-07-07T04:04:00.087Z,13.70
2023-07-07T04:06:27.516Z,12.10
2023-07-07T04:08:57.372Z,13.50
2023-07-07T04:11:25.800Z,13.95
2023-07-07T04:13:53.927Z,6.32
2023-07-07T04:16:25.502Z,12.10
2023-07-07T04:18:54.659Z,10.55
2023-07-07T04:21:26.950Z,17.90
2023-07-07T04:23:54.946Z,9.98
2023-07-07T04:26:22.321Z,10.82
2023-07-07T04:28:52.834Z,11.98
2023-07-07T04:31:22.055Z,10.25
2023-07-07T04:33:49.358Z,11.07
2023-07-07T04:36:16.947Z,17.63
2023-07-07T04:38:45.905Z,7.68
2023-07-07T04:41:14.290Z,8.68
2023-07-07T04:43:43.668Z,12.93
2023-07-07T04:46:13.460Z,9.70
2023-07-07T04:48:41.084Z,8.43
2023-07-07T04:51:09.551Z,10.20
2023-07-07T04:53:37.964Z,13.20
2023-07-07T04:56:12.441Z,12.68
2023-07-07T04:58:40.714Z,13.27
2023-07-07T05:01:11.468Z,11.10
2023-07-07T05:03:40.837Z,10.57
2023-07-07T05:06:08.099Z,9.40
2023-07-07T05:08:37.801Z,13.07
2023-07-07T05:11:06.541Z,11.60
2023-07-07T05:13:34.299Z,7.97
2023-07-07T05:16:06.394Z,9.25
2023-07-07T05:18:34.075Z,8.70
2023-07-07T05:21:03.803Z,10.50
2023-07-07T05:23:33.444Z,10.43
2023-07-07T05:26:00.679Z,8.55
2023-07-07T05:28:28.603Z,8.88
2023-07-07T05:30:56.044Z,8.65
2023-07-07T05:33:25.848Z,8.38
2023-07-07T05:35:54.561Z,14.63
2023-07-07T05:38:24.281Z,14.80
2023-07-07T05:40:51.852Z,20.80
2023-07-07T05:43:20.268Z,18.50
2023-07-07T05:45:47.496Z,18.10
2023-07-07T05:48:15.208Z,18.67
2023-07-07T05:50:43.449Z,20.35
2023-07-07T05:53:11.547Z,23.17
2023-07-07T05:55:39.081Z,17.80
2023-07-07T05:58:06.640Z,17.38
2023-07-07T06:00:36.667Z,21.17
2023-07-07T06:03:04.112Z,9.30
2023-07-07T06:05:33.296Z,10.43
2023-07-07T06:08:00.666Z,13.75
2023-07-07T06:10:28.595Z,9.25
2023-07-07T06:12:56.025Z,7.55
2023-07-07T06:15:23.414Z,7.57
2023-07-07T06:17:51.687Z,7.68
2023-07-07T06:20:18.905Z,5.80
2023-07-07T06:22:46.127Z,6.20
2023-07-07T06:25:13.187Z,9.55
2023-07-07T06:27:41.730Z,6.72
2023-07-07T06:30:09.174Z,11.25
2023-07-07T06:32:36.605Z,9.52
2023-07-07T06:35:04.942Z,4.72
2023-07-07T06:37:32.622Z,12.25
2023-07-07T06:39:59.914Z,7.25
2023-07-07T06:42:27.209Z,5.95
2023-07-07T06:45:06.318Z,7.32
2023-07-07T06:47:33.746Z,8.57
2023-07-07T06:50:02.132Z,11.68
2023-07-07T06:52:29.688Z,7.28
2023-07-07T06:55:01.063Z,13.98
2023-07-07T06:57:35.019Z,8.70
2023-07-07T07:00:04.212Z,9.57
2023-07-07T07:02:31.887Z,9.07
2023-07-07T07:04:59.339Z,8.52
2023-07-07T07:07:26.601Z,7.07
2023-07-07T07:09:54.137Z,7.28
2023-07-07T07:12:21.429Z,8.35
2023-07-07T07:14:49.180Z,13.50
2023-07-07T07:17:16.469Z,11.45
2023-07-07T07:19:45.717Z,13.77
2023-07-07T07:22:16.677Z,8.40
2023-07-07T07:24:43.937Z,7.82
2023-07-07T07:27:11.231Z,5.60
2023-07-07T07:29:38.566Z,6.53
2023-07-07T07:32:06.100Z,14.32
2023-07-07T07:34:36.683Z,16.73
2023-07-07T07:37:07.667Z,11.90
2023-07-07T07:39:37.295Z,10.25
2023-07-07T07:42:05.748Z,11.88
2023-07-07T07:44:33.287Z,15.63
2023-07-07T07:47:01.215Z,17.52
2023-07-07T07:49:28.708Z,10.25
2023-07-07T07:51:55.925Z,13.13
2023-07-07T07:54:23.317Z,10.93
2023-07-07T07:56:50.822Z,7.80
2023-07-07T07:59:18.159Z,9.27
2023-07-07T08:01:46.207Z,15.82
2023-07-07T08:04:13.685Z,7.78
2023-07-07T08:06:41.847Z,15.27
2023-07-07T08:09:09.895Z,14.38
2023-07-07T08:11:43.420Z,12.25
2023-07-07T08:14:21.367Z,11.13
2023-07-07T08:16:55.401Z,14.70
2023-07-07T08:19:23.041Z,9.35
2023-07-07T08:21:50.417Z,8.90
2023-07-07T08:24:17.618Z,13.48
2023-07-07T08:26:45.636Z,7.72
2023-07-07T08:31:43.308Z,11.77
2023-07-07T08:34:10.706Z,12.23
2023-07-07T08:36:38.358Z,9.27
2023-07-07T08:39:13.006Z,8.27
2023-07-07T08:41:45.275Z,9.75
2023-07-07T08:44:14.797Z,9.05
2023-07-07T08:46:47.604Z,10.02
2023-07-07T08:49:18.708Z,16.38
2023-07-07T08:51:59.744Z,15.10
2023-07-07T08:54:43.021Z,12.45
2023-07-07T08:57:11.955Z,12.90
2023-07-07T09:00:00.943Z,7.40
2023-07-07T09:03:07.341Z,6.55
2023-07-07T09:05:51.031Z,10.35
2023-07-07T09:08:30.389Z,9.63
2023-07-07T09:14:06.845Z,11.80
2023-07-07T09:16:36.189Z,9.20
2023-07-07T09:19:06.327Z,7.32
2023-07-07T09:21:42.460Z,11.43
2023-07-07T09:24:29.898Z,6.15
2023-07-07T09:26:59.682Z,6.78
2023-07-07T09:29:30.670Z,10.50
2023-07-07T09:32:00.400Z,10.18
2023-07-07T09:34:27.892Z,12.60
2023-07-07T09:37:07.277Z,9.07
2023-07-07T09:40:09.016Z,8.68
2023-07-07T09:43:05.574Z,7.53
2023-07-07T09:46:00.147Z,10.77
2023-07-07T09:48:47.591Z,7.57
2023-07-07T09:51:24.073Z,5.88
2023-07-07T09:53:51.182Z,11.32
2023-07-07T09:56:21.522Z,10.30
2023-07-07T09:58:59.248Z,10.07
2023-07-07T10:01:29.796Z,11.60
2023-07-07T10:03:57.060Z,7.05
2023-07-07T10:06:37.481Z,6.13
2023-07-07T10:09:05.484Z,10.90
2023-07-07T10:14:08.615Z,9.35
2023-07-07T10:16:44.652Z,11.45
2023-07-07T10:19:14.040Z,9.13
2023-07-07T10:21:41.154Z,4.72
2023-07-07T10:24:13.217Z,14.02
2023-07-07T10:26:43.758Z,7.82
2023-07-07T10:29:13.135Z,8.80
2023-07-07T10:31:43.914Z,8.05
2023-07-07T10:34:28.344Z,8.07
2023-07-07T10:39:32.716Z,4.05
2023-07-07T10:41:59.968Z,6.78
2023-07-07T10:44:27.973Z,6.40
2023-07-07T10:46:55.218Z,4.22
2023-07-07T10:49:25.746Z,10.80
2023-07-07T10:52:16.289Z,5.53
2023-07-07T10:55:06.385Z,5.97
2023-07-07T10:57:48.450Z,9.55
2023-07-07T11:03:51.166Z,7.70
2023-07-07T11:06:34.415Z,7.00
2023-07-07T11:09:20.239Z,5.50
2023-07-07T11:11:51.485Z,6.55
2023-07-07T11:14:48.514Z,6.13
2023-07-07T11:17:22.297Z,7.35
2023-07-07T11:20:05.821Z,5.93
2023-07-07T11:22:47.932Z,4.82
2023-07-07T11:25:15.429Z,5.18
2023-07-07T11:28:04.304Z,5.88
2023-07-07T11:31:12.734Z,6.07
2023-07-07T11:33:58.544Z,6.72
2023-07-07T11:36:34.622Z,4.47
2023-07-07T11:39:08.425Z,4.10
2023-07-07T11:44:38.696Z,7.90
2023-07-07T11:47:16.268Z,4.00
2023-07-07T11:50:05.807Z,2.65
2023-07-07T11:52:46.895Z,8.63
2023-07-07T11:55:23.365Z,3.40
2023-07-07T11:57:53.860Z,6.03
2023-07-07T12:00:27.830Z,3.42
2023-07-07T12:03:37.200Z,6.32
2023-07-07T12:06:25.460Z,4.68
2023-07-07T12:09:08.204Z,4.75
2023-07-07T12:11:40.019Z,3.88
2023-07-07T12:14:23.657Z,4.93
2023-07-07T12:16:51.053Z,8.05
2023-07-07T12:19:43.023Z,7.50
2023-07-07T12:22:16.957Z,5.88
2023-07-07T12:24:49.795Z,6.03
2023-07-07T12:27:27.172Z,6.00
2023-07-07T12:29:54.779Z,4.95
2023-07-07T12:32:24.644Z,8.07
2023-07-07T12:35:16.192Z,6.45
2023-07-07T12:37:44.266Z,5.15
2023-07-07T12:40:12.593Z,8.55
2023-07-07T12:42:41.824Z,4.25
2023-07-07T12:45:24.814Z,5.32
2023-07-07T12:47:57.293Z,7.03
2023-07-07T12:50:39.614Z,9.60
2023-07-07T12:53:24.248Z,5.78
2023-07-07T12:58:48.895Z,5.13
2023-07-07T13:01:16.947Z,5.60
2023-07-07T13:04:09.152Z,7.72
2023-07-07T13:06:40.984Z,6.47
2023-07-07T13:09:14.523Z,3.95
2023-07-07T13:11:46.931Z,4.43
2023-07-07T13:14:40.829Z,4.28
2023-07-07T13:17:12.950Z,5.40
2023-07-07T13:19:44.931Z,4.95
2023-07-07T13:22:17.772Z,5.72
2023-07-07T13:27:24.093Z,4.05
2023-07-07T13:30:00.540Z,3.47
2023-07-07T13:32:29.438Z,7.50
2023-07-07T13:34:59.925Z,4.55
2023-07-07T13:37:28.454Z,4.20
2023-07-07T13:39:57.389Z,3.22
2023-07-07T13:42:32.511Z,4.47
2023-07-07T13:45:05.293Z,5.90
2023-07-07T13:47:33.604Z,3.80
2023-07-07T13:50:03.098Z,7.93
2023-07-07T13:52:33.401Z,3.75
2023-07-07T13:55:00.916Z,5.13
2023-07-07T13:57:30.807Z,4.25
2023-07-07T13:59:58.957Z,3.60
2023-07-07T14:02:26.706Z,5.10
2023-07-07T14:05:07.327Z,5.28
2023-07-07T14:07:39.061Z,5.78
2023-07-07T14:10:29.072Z,13.65
2023-07-07T14:12:56.799Z,5.82
2023-07-07T14:15:33.120Z,4.20
2023-07-07T14:18:03.523Z,5.55
2023-07-07T14:20:36.884Z,5.82
2023-07-07T14:23:04.424Z,4.47
2023-07-07T14:25:31.672Z,2.97
2023-07-07T14:27:59.246Z,6.97
2023-07-07T14:30:26.977Z,3.80
2023-07-07T14:32:55.694Z,3.20
2023-07-07T14:35:30.361Z,3.45
2023-07-07T14:37:59.586Z,4.85
2023-07-07T14:40:34.766Z,4.07
2023-07-07T14:43:03.960Z,4.32
2023-07-07T14:45:34.762Z,2.88
2023-07-07T14:48:03.981Z,5.47
2023-07-07T14:50:31.818Z,7.43
2023-07-07T14:52:59.688Z,5.40
2023-07-07T14:55:29.414Z,5.30
2023-07-07T14:57:58.789Z,4.13
2023-07-07T15:00:30.595Z,5.15
2023-07-07T15:02:58.095Z,5.15
2023-07-07T15:05:30.030Z,4.68
2023-07-07T15:08:30.587Z,3.67
2023-07-07T15:11:07.614Z,5.65
2023-07-07T15:13:35.086Z,5.68
2023-07-07T15:16:05.552Z,5.72
2023-07-07T15:18:34.125Z,4.40
2023-07-07T15:21:01.476Z,4.32
2023-07-07T15:23:31.008Z,4.28
2023-07-07T15:26:00.109Z,4.07
2023-07-07T15:28:27.828Z,5.90
2023-07-07T15:30:55.697Z,6.93
2023-07-07T15:33:24.545Z,7.18
2023-07-07T15:35:52.578Z,8.00
2023-07-07T15:38:45.689Z,10.55
2023-07-07T15:41:17.570Z,9.70
2023-07-07T15:43:45.872Z,9.88
2023-07-07T15:46:20.899Z,10.18
2023-07-07T15:48:50.285Z,12.32
2023-07-07T15:51:38.285Z,12.38
2023-07-07T15:54:15.706Z,10.05
2023-07-07T15:56:44.507Z,17.38
2023-07-07T15:59:18.563Z,11.77
2023-07-07T16:01:46.169Z,9.75
2023-07-07T16:04:14.454Z,15.52
2023-07-07T16:06:42.832Z,13.98
2023-07-07T16:09:15.674Z,9.50
2023-07-07T16:11:43.918Z,11.98
2023-07-07T16:14:11.939Z,11.55
2023-07-07T16:16:40.176Z,12.60
2023-07-07T16:19:16.434Z,7.15
2023-07-07T16:21:44.371Z,11.50
2023-07-07T16:24:11.792Z,12.68
2023-07-07T16:26:40.562Z,8.45
2023-07-07T16:29:26.673Z,7.28
2023-07-07T16:31:54.112Z,9.25
2023-07-07T16:34:21.365Z,6.95
2023-07-07T16:36:48.574Z,5.03
2023-07-07T16:39:17.237Z,7.35
2023-07-07T16:41:44.470Z,8.60
2023-07-07T16:44:11.718Z,9.07
2023-07-07T16:46:39.274Z,12.05
2023-07-07T16:49:13.175Z,6.05
2023-07-07T16:51:41.250Z,7.85
2023-07-07T16:54:09.146Z,7.65
2023-07-07T16:56:37.814Z,8.10
2023-07-07T16:59:12.698Z,10.00
2023-07-07T17:01:40.058Z,11.85
2023-07-07T17:04:07.601Z,10.20
2023-07-07T17:06:36.029Z,6.32
2023-07-07T17:09:12.887Z,7.15
2023-07-07T17:11:41.264Z,7.30
2023-07-07T17:14:08.539Z,6.53
2023-07-07T17:16:36.760Z,10.20
2023-07-07T17:19:19.672Z,4.90
2023-07-07T17:21:46.969Z,5.93
2023-07-07T17:24:14.863Z,8.50
2023-07-07T17:26:43.416Z,9.00
2023-07-07T17:29:14.988Z,8.15
2023-07-07T17:31:42.609Z,9.25
2023-07-07T17:34:09.891Z,7.30
2023-07-07T17:36:37.942Z,6.53
2023-07-07T17:39:08.079Z,7.63
2023-07-07T17:41:36.646Z,6.13
2023-07-07T17:44:03.829Z,7.93
2023-07-07T17:46:33.118Z,9.23
2023-07-07T17:49:02.056Z,6.85
2023-07-07T17:51:29.937Z,6.65
2023-07-07T17:53:58.334Z,8.45
2023-07-07T17:56:27.308Z,4.60
2023-07-07T17:58:54.870Z,12.23
2023-07-07T18:01:22.591Z,8.57
2023-07-07T18:03:49.993Z,6.88
2023-07-07T18:06:21.124Z,8.27
2023-07-07T18:08:51.243Z,10.05
2023-07-07T18:11:26.695Z,7.65
2023-07-07T18:13:55.569Z,9.50
2023-07-07T18:16:25.066Z,10.75
2023-07-07T18:19:19.053Z,11.80
2023-07-07T18:21:52.332Z,10.98
2023-07-07T18:24:24.155Z,12.35
2023-07-07T18:26:53.246Z,6.55
2023-07-07T18:29:23.479Z,9.48
2023-07-07T18:31:50.897Z,14.75
2023-07-07T18:34:18.420Z,11.60
2023-07-07T18:36:48.602Z,10.55
2023-07-07T18:39:19.271Z,12.00
2023-07-07T18:41:46.700Z,8.13
2023-07-07T18:44:14.067Z,12.70
2023-07-07T18:46:42.553Z,12.20
2023-07-07T18:49:13.409Z,9.98
2023-07-07T18:51:44.117Z,14.40
2023-07-07T18:54:11.979Z,12.07
2023-07-07T18:56:41.539Z,9.68
2023-07-07T18:59:14.195Z,9.35
2023-07-07T19:01:42.076Z,11.43
2023-07-07T19:04:09.312Z,10.48
2023-07-07T19:06:38.377Z,9.82
2023-07-07T19:09:19.464Z,9.07
2023-07-07T19:11:50.764Z,15.80
2023-07-07T19:14:18.482Z,12.27
2023-07-07T19:16:46.067Z,10.07
2023-07-07T19:19:22.321Z,10.30
2023-07-07T19:21:49.867Z,9.43
2023-07-07T19:24:17.398Z,13.13
2023-07-07T19:26:48.045Z,9.40
2023-07-07T19:29:15.615Z,13.55
2023-07-07T19:31:44.199Z,11.73
2023-07-07T19:34:13.105Z,15.23
2023-07-07T19:36:44.141Z,15.43
2023-07-07T19:39:18.930Z,9.93
2023-07-07T19:41:47.060Z,10.57
2023-07-07T19:44:14.830Z,10.20
2023-07-07T19:46:43.136Z,12.02
2023-07-07T19:49:30.892Z,8.32
2023-07-07T19:51:58.367Z,7.90
2023-07-07T19:54:26.042Z,13.25
2023-07-07T19:56:55.318Z,12.82
2023-07-07T19:59:22.740Z,8.25
2023-07-07T20:01:49.982Z,9.13
2023-07-07T20:04:18.950Z,17.42
2023-07-07T20:06:47.133Z,14.93
2023-07-07T20:09:21.614Z,17.30
2023-07-07T20:11:49.834Z,12.93
2023-07-07T20:14:17.063Z,15.10
2023-07-07T20:16:46.811Z,10.98
2023-07-07T20:19:15.156Z,10.30
2023-07-07T20:21:42.882Z,8.07
2023-07-07T20:24:30.510Z,7.97
2023-07-07T20:27:04.220Z,10.32
2023-07-07T20:29:32.674Z,9.75
2023-07-07T20:31:59.969Z,8.10
2023-07-07T20:34:27.678Z,9.05
2023-07-07T20:36:55.048Z,11.27
2023-07-07T20:39:23.310Z,8.07
2023-07-07T20:41:51.149Z,10.50
2023-07-07T20:44:18.436Z,13.32
2023-07-07T20:46:46.557Z,7.18
2023-07-07T20:49:19.271Z,9.32
2023-07-07T20:51:47.176Z,12.85
2023-07-07T20:54:14.347Z,12.05
2023-07-07T20:56:41.496Z,9.77
2023-07-07T20:59:25.054Z,9.75
2023-07-07T21:01:57.655Z,9.57
2023-07-07T21:04:25.598Z,12.65
2023-07-07T21:06:53.344Z,10.95
2023-07-07T21:09:21.146Z,11.40
2023-07-07T21:11:49.334Z,11.70
2023-07-07T21:14:16.587Z,10.57
2023-07-07T21:16:46.907Z,10.73
2023-07-07T21:19:14.832Z,10.18
2023-07-07T21:21:42.220Z,10.68
2023-07-07T21:24:09.569Z,11.48
2023-07-07T21:26:36.932Z,15.55
2023-07-07T21:29:11.951Z,18.92
2023-07-07T21:31:40.554Z,14.70
2023-07-07T21:34:09.118Z,21.13
2023-07-07T21:36:38.448Z,20.65
2023-07-07T21:39:24.664Z,21.15
2023-07-07T21:42:02.605Z,22.10
2023-07-07T21:44:33.846Z,18.88
2023-07-07T21:47:01.332Z,14.60
2023-07-07T21:49:28.530Z,14.20
2023-07-07T21:51:56.216Z,12.70
2023-07-07T21:54:23.390Z,12.80
2023-07-07T21:56:50.487Z,16.63
2023-07-07T21:59:19.305Z,19.83
2023-07-07T22:01:48.512Z,25.20
2023-07-07T22:04:16.158Z,18.52
2023-07-07T22:06:43.955Z,13.35
2023-07-07T22:09:17.494Z,14.70
2023-07-07T22:11:45.026Z,14.23
2023-07-07T22:14:12.773Z,16.23
2023-07-07T22:16:40.066Z,18.10
2023-07-07T22:19:15.569Z,14.50
2023-07-07T22:21:42.779Z,20.33
2023-07-07T22:24:10.232Z,25.67
2023-07-07T22:26:38.034Z,33.25
2023-07-07T22:29:05.090Z,30.20
2023-07-07T22:31:32.329Z,21.30
2023-07-07T22:33:59.670Z,15.35
2023-07-07T22:36:27.827Z,20.55
2023-07-07T22:38:55.025Z,15.65
2023-07-07T22:41:27.072Z,15.90
2023-07-07T22:43:54.212Z,8.50
2023-07-07T22:46:32.458Z,12.55
2023-07-07T22:48:59.666Z,9.07
2023-07-07T22:51:27.038Z,12.05
2023-07-07T22:53:54.842Z,9.50
2023-07-07T22:56:30.322Z,9.40
2023-07-07T22:58:58.056Z,13.38
2023-07-07T23:01:25.916Z,12.15
2023-07-07T23:03:57.586Z,8.02
2023-07-07T23:06:24.963Z,9.52
2023-07-07T23:08:58.716Z,9.98
2023-07-07T23:11:26.530Z,7.53
2023-07-07T23:13:58.000Z,9.88
2023-07-07T23:16:26.423Z,11.48
2023-07-07T23:18:54.362Z,7.95
2023-07-07T23:21:22.005Z,7.63
2023-07-07T23:23:49.462Z,8.10
2023-07-07T23:26:21.024Z,8.35
2023-07-07T23:28:48.839Z,10.40
2023-07-07T23:31:17.867Z,8.38
2023-07-07T23:33:45.738Z,9.55
2023-07-07T23:36:17.650Z,9.07
2023-07-07T23:38:45.581Z,9.52
2023-07-07T23:41:13.471Z,9.05
2023-07-07T23:43:40.905Z,10.55
2023-07-07T23:46:12.719Z,5.50
2023-07-07T23:48:40.507Z,7.20
2023-07-07T23:51:10.850Z,10.27
2023-07-07T23:53:39.680Z,9.30
2023-07-07T23:56:12.336Z,5.90
2023-07-07T23:58:39.812Z,6.60
